sensor_id;sensor_type;location;lat;lon;timestamp;pressure;altitude;pressure_sealevel;temperature;humidity
49342;BME280;35210;41.606;-87.602;2023-03-21T00:02:08;99715.66;;;10.36;38.32
49342;BME280;35210;41.606;-87.602;2023-03-21T00:04:36;99722.38;;;10.40;38.42
49342;BME280;35210;41.606;-87.602;2023-03-21T00:07:05;99714.81;;;10.36;38.41
49342;BME280;35210;41.606;-87.602;2023-03-21T00:09:33;99717.56;;;10.34;39.00
49342;BME280;35210;41.606;-87.602;2023-03-21T00:12:07;99736.38;;;10.30;38.58
49342;BME280;35210;41.606;-87.602;2023-03-21T00:14:38;99733.22;;;10.25;39.54
49342;BME280;35210;41.606;-87.602;2023-03-21T00:17:06;99731.00;;;10.31;38.75
49342;BME280;35210;41.606;-87.602;2023-03-21T00:19:35;99730.25;;;10.29;39.37
49342;BME280;35210;41.606;-87.602;2023-03-21T00:22:04;99744.72;;;10.24;39.09
49342;BME280;35210;41.606;-87.602;2023-03-21T00:24:32;99737.03;;;10.20;39.26
49342;BME280;35210;41.606;-87.602;2023-03-21T00:27:00;99739.03;;;10.04;39.18
49342;BME280;35210;41.606;-87.602;2023-03-21T00:29:28;99733.44;;;10.09;39.87
49342;BME280;35210;41.606;-87.602;2023-03-21T00:31:58;99748.41;;;10.08;39.27
49342;BME280;35210;41.606;-87.602;2023-03-21T00:34:26;99736.38;;;10.04;39.92
49342;BME280;35210;41.606;-87.602;2023-03-21T00:36:54;99738.94;;;9.93;39.81
49342;BME280;35210;41.606;-87.602;2023-03-21T00:39:22;99727.72;;;10.02;39.95
49342;BME280;35210;41.606;-87.602;2023-03-21T00:41:51;99752.63;;;9.98;40.06
49342;BME280;35210;41.606;-87.602;2023-03-21T00:44:19;99734.69;;;9.91;40.77
49342;BME280;35210;41.606;-87.602;2023-03-21T00:46:48;99743.66;;;10.01;39.75
49342;BME280;35210;41.606;-87.602;2023-03-21T00:49:18;99741.13;;;9.86;40.21
49342;BME280;35210;41.606;-87.602;2023-03-21T00:51:47;99740.72;;;9.93;40.18
49342;BME280;35210;41.606;-87.602;2023-03-21T00:54:17;99754.75;;;9.80;40.35
49342;BME280;35210;41.606;-87.602;2023-03-21T00:56:45;99740.19;;;9.87;39.90
49342;BME280;35210;41.606;-87.602;2023-03-21T00:59:13;99746.09;;;9.78;40.52
49342;BME280;35210;41.606;-87.602;2023-03-21T01:01:41;99747.56;;;9.82;40.38
49342;BME280;35210;41.606;-87.602;2023-03-21T01:04:12;99750.84;;;9.86;39.58
49342;BME280;35210;41.606;-87.602;2023-03-21T01:06:43;99737.75;;;9.84;39.92
49342;BME280;35210;41.606;-87.602;2023-03-21T01:09:14;99742.84;;;9.87;40.77
49342;BME280;35210;41.606;-87.602;2023-03-21T01:11:43;99739.34;;;9.74;39.98
49342;BME280;35210;41.606;-87.602;2023-03-21T01:14:12;99739.13;;;9.77;40.64
49342;BME280;35210;41.606;-87.602;2023-03-21T01:16:41;99729.00;;;9.71;40.35
49342;BME280;35210;41.606;-87.602;2023-03-21T01:19:12;99735.75;;;9.75;40.59
49342;BME280;35210;41.606;-87.602;2023-03-21T01:21:43;99738.06;;;9.67;40.09
49342;BME280;35210;41.606;-87.602;2023-03-21T01:24:11;99736.81;;;9.73;40.40
49342;BME280;35210;41.606;-87.602;2023-03-21T01:26:40;99743.13;;;9.70;40.58
49342;BME280;35210;41.606;-87.602;2023-03-21T01:29:08;99749.50;;;9.55;40.68
49342;BME280;35210;41.606;-87.602;2023-03-21T01:31:37;99748.44;;;9.58;39.93
49342;BME280;35210;41.606;-87.602;2023-03-21T01:34:05;99743.38;;;9.54;40.68
49342;BME280;35210;41.606;-87.602;2023-03-21T01:36:33;99739.56;;;9.46;41.04
49342;BME280;35210;41.606;-87.602;2023-03-21T01:39:04;99744.63;;;9.49;40.52
49342;BME280;35210;41.606;-87.602;2023-03-21T01:41:34;99740.72;;;9.42;41.45
49342;BME280;35210;41.606;-87.602;2023-03-21T01:44:03;99747.75;;;9.29;41.73
49342;BME280;35210;41.606;-87.602;2023-03-21T01:46:35;99757.81;;;9.09;41.96
49342;BME280;35210;41.606;-87.602;2023-03-21T01:49:10;99758.16;;;9.17;41.97
49342;BME280;35210;41.606;-87.602;2023-03-21T01:51:43;99760.16;;;9.14;41.86
49342;BME280;35210;41.606;-87.602;2023-03-21T01:54:18;99765.97;;;8.92;42.19
49342;BME280;35210;41.606;-87.602;2023-03-21T01:56:52;99763.66;;;8.87;42.94
49342;BME280;35210;41.606;-87.602;2023-03-21T01:59:24;99772.31;;;8.89;43.54
49342;BME280;35210;41.606;-87.602;2023-03-21T02:01:55;99774.84;;;8.91;43.61
49342;BME280;35210;41.606;-87.602;2023-03-21T02:04:27;99784.03;;;8.71;44.09
49342;BME280;35210;41.606;-87.602;2023-03-21T02:06:58;99776.88;;;8.73;43.62
49342;BME280;35210;41.606;-87.602;2023-03-21T02:09:32;99779.31;;;8.76;44.17
49342;BME280;35210;41.606;-87.602;2023-03-21T02:12:02;99794.56;;;8.71;44.46
49342;BME280;35210;41.606;-87.602;2023-03-21T02:14:34;99783.97;;;8.44;44.87
49342;BME280;35210;41.606;-87.602;2023-03-21T02:17:09;99784.91;;;8.57;44.65
49342;BME280;35210;41.606;-87.602;2023-03-21T02:20:26;99778.81;;;8.43;45.27
49342;BME280;35210;41.606;-87.602;2023-03-21T02:23:29;99790.19;;;8.43;44.54
49342;BME280;35210;41.606;-87.602;2023-03-21T02:26:24;99794.31;;;8.33;45.58
49342;BME280;35210;41.606;-87.602;2023-03-21T02:29:01;99794.47;;;8.30;45.05
49342;BME280;35210;41.606;-87.602;2023-03-21T02:31:40;99796.53;;;8.25;45.82
49342;BME280;35210;41.606;-87.602;2023-03-21T02:34:34;99798.97;;;8.28;45.94
49342;BME280;35210;41.606;-87.602;2023-03-21T02:37:24;99806.34;;;8.09;45.75
49342;BME280;35210;41.606;-87.602;2023-03-21T02:40:06;99788.66;;;8.25;46.17
49342;BME280;35210;41.606;-87.602;2023-03-21T02:42:48;99792.06;;;7.99;46.60
49342;BME280;35210;41.606;-87.602;2023-03-21T02:45:24;99789.81;;;8.07;46.59
49342;BME280;35210;41.606;-87.602;2023-03-21T02:47:56;99798.94;;;8.15;46.27
49342;BME280;35210;41.606;-87.602;2023-03-21T02:50:29;99798.81;;;8.03;46.91
49342;BME280;35210;41.606;-87.602;2023-03-21T02:53:02;99799.38;;;8.08;46.35
49342;BME280;35210;41.606;-87.602;2023-03-21T02:55:32;99797.22;;;8.00;46.81
49342;BME280;35210;41.606;-87.602;2023-03-21T02:58:02;99807.19;;;7.95;46.53
49342;BME280;35210;41.606;-87.602;2023-03-21T03:00:32;99805.97;;;8.01;46.91
49342;BME280;35210;41.606;-87.602;2023-03-21T03:03:02;99824.31;;;7.72;46.63
49342;BME280;35210;41.606;-87.602;2023-03-21T03:05:35;99812.41;;;7.81;47.22
49342;BME280;35210;41.606;-87.602;2023-03-21T03:08:22;99804.81;;;7.90;47.05
49342;BME280;35210;41.606;-87.602;2023-03-21T03:11:03;99817.19;;;7.74;47.45
49342;BME280;35210;41.606;-87.602;2023-03-21T03:13:42;99818.50;;;7.81;47.22
49342;BME280;35210;41.606;-87.602;2023-03-21T03:16:21;99823.09;;;7.78;47.13
49342;BME280;35210;41.606;-87.602;2023-03-21T03:18:57;99825.66;;;7.79;47.23
49342;BME280;35210;41.606;-87.602;2023-03-21T03:21:29;99827.03;;;7.71;47.32
49342;BME280;35210;41.606;-87.602;2023-03-21T03:24:04;99838.94;;;7.62;47.65
49342;BME280;35210;41.606;-87.602;2023-03-21T03:26:36;99842.50;;;7.61;47.95
49342;BME280;35210;41.606;-87.602;2023-03-21T03:29:08;99826.78;;;7.45;48.14
49342;BME280;35210;41.606;-87.602;2023-03-21T03:31:41;99841.78;;;7.43;48.39
49342;BME280;35210;41.606;-87.602;2023-03-21T03:34:14;99851.00;;;7.50;48.04
49342;BME280;35210;41.606;-87.602;2023-03-21T03:36:46;99846.78;;;7.48;47.92
49342;BME280;35210;41.606;-87.602;2023-03-21T03:39:18;99846.09;;;7.44;48.31
49342;BME280;35210;41.606;-87.602;2023-03-21T03:41:50;99852.41;;;7.42;48.13
49342;BME280;35210;41.606;-87.602;2023-03-21T03:44:21;99866.47;;;7.41;47.89
49342;BME280;35210;41.606;-87.602;2023-03-21T03:46:55;99860.38;;;7.40;48.54
49342;BME280;35210;41.606;-87.602;2023-03-21T03:49:30;99867.66;;;7.35;48.07
49342;BME280;35210;41.606;-87.602;2023-03-21T03:52:03;99873.84;;;7.34;47.84
49342;BME280;35210;41.606;-87.602;2023-03-21T03:54:37;99873.94;;;7.33;48.06
49342;BME280;35210;41.606;-87.602;2023-03-21T03:57:06;99875.91;;;7.29;47.99
49342;BME280;35210;41.606;-87.602;2023-03-21T03:59:38;99874.88;;;7.16;47.97
49342;BME280;35210;41.606;-87.602;2023-03-21T04:02:06;99882.09;;;7.28;48.15
49342;BME280;35210;41.606;-87.602;2023-03-21T04:04:35;99878.59;;;7.28;47.90
49342;BME280;35210;41.606;-87.602;2023-03-21T04:07:03;99879.19;;;7.33;47.22
49342;BME280;35210;41.606;-87.602;2023-03-21T04:09:34;99879.22;;;7.01;47.87
49342;BME280;35210;41.606;-87.602;2023-03-21T04:12:03;99879.72;;;7.23;47.60
49342;BME280;35210;41.606;-87.602;2023-03-21T04:14:31;99872.28;;;7.00;48.22
49342;BME280;35210;41.606;-87.602;2023-03-21T04:16:59;99878.38;;;7.16;47.60
49342;BME280;35210;41.606;-87.602;2023-03-21T04:19:27;99878.28;;;7.02;47.58
49342;BME280;35210;41.606;-87.602;2023-03-21T04:21:55;99885.81;;;7.08;47.96
49342;BME280;35210;41.606;-87.602;2023-03-21T04:24:23;99870.47;;;7.16;47.22
49342;BME280;35210;41.606;-87.602;2023-03-21T04:26:53;99876.84;;;7.12;47.64
49342;BME280;35210;41.606;-87.602;2023-03-21T04:29:21;99878.38;;;7.16;47.72
49342;BME280;35210;41.606;-87.602;2023-03-21T04:31:50;99880.47;;;7.25;47.39
49342;BME280;35210;41.606;-87.602;2023-03-21T04:34:18;99895.31;;;7.11;47.54
49342;BME280;35210;41.606;-87.602;2023-03-21T04:36:49;99881.84;;;7.01;47.80
49342;BME280;35210;41.606;-87.602;2023-03-21T04:39:19;99894.47;;;7.10;47.50
49342;BME280;35210;41.606;-87.602;2023-03-21T04:41:52;99894.22;;;7.15;47.43
49342;BME280;35210;41.606;-87.602;2023-03-21T04:44:20;99893.78;;;7.07;47.63
49342;BME280;35210;41.606;-87.602;2023-03-21T04:46:48;99890.06;;;7.11;47.81
49342;BME280;35210;41.606;-87.602;2023-03-21T04:49:17;99898.19;;;7.06;47.83
49342;BME280;35210;41.606;-87.602;2023-03-21T04:51:46;99891.84;;;7.10;47.73
49342;BME280;35210;41.606;-87.602;2023-03-21T04:54:15;99902.00;;;7.16;47.74
49342;BME280;35210;41.606;-87.602;2023-03-21T04:56:43;99903.88;;;7.14;47.93
49342;BME280;35210;41.606;-87.602;2023-03-21T04:59:14;99897.84;;;6.97;48.10
49342;BME280;35210;41.606;-87.602;2023-03-21T05:01:43;99902.66;;;7.04;47.93
49342;BME280;35210;41.606;-87.602;2023-03-21T05:04:13;99909.44;;;7.08;48.05
49342;BME280;35210;41.606;-87.602;2023-03-21T05:06:41;99910.13;;;6.96;48.16
49342;BME280;35210;41.606;-87.602;2023-03-21T05:09:10;99916.81;;;7.02;48.22
49342;BME280;35210;41.606;-87.602;2023-03-21T05:11:40;99910.88;;;6.98;48.39
49342;BME280;35210;41.606;-87.602;2023-03-21T05:14:10;99921.13;;;6.87;48.42
49342;BME280;35210;41.606;-87.602;2023-03-21T05:16:41;99922.56;;;6.92;48.02
49342;BME280;35210;41.606;-87.602;2023-03-21T05:19:13;99920.03;;;6.91;48.24
49342;BME280;35210;41.606;-87.602;2023-03-21T05:21:42;99926.97;;;6.92;48.42
49342;BME280;35210;41.606;-87.602;2023-03-21T05:24:13;99933.13;;;6.75;48.44
49342;BME280;35210;41.606;-87.602;2023-03-21T05:26:43;99934.25;;;6.87;48.21
49342;BME280;35210;41.606;-87.602;2023-03-21T05:29:16;99931.63;;;6.87;48.19
49342;BME280;35210;41.606;-87.602;2023-03-21T05:31:46;99929.34;;;6.97;47.90
49342;BME280;35210;41.606;-87.602;2023-03-21T05:34:14;99938.00;;;6.99;47.94
49342;BME280;35210;41.606;-87.602;2023-03-21T05:36:43;99926.81;;;6.95;47.92
49342;BME280;35210;41.606;-87.602;2023-03-21T05:39:11;99930.97;;;6.99;47.82
49342;BME280;35210;41.606;-87.602;2023-03-21T05:41:39;99934.25;;;6.87;48.28
49342;BME280;35210;41.606;-87.602;2023-03-21T05:44:07;99940.69;;;6.97;47.99
49342;BME280;35210;41.606;-87.602;2023-03-21T05:46:36;99933.31;;;6.88;47.69
49342;BME280;35210;41.606;-87.602;2023-03-21T05:49:05;99935.00;;;6.89;47.59
49342;BME280;35210;41.606;-87.602;2023-03-21T05:51:33;99940.34;;;6.87;48.29
49342;BME280;35210;41.606;-87.602;2023-03-21T05:54:01;99941.31;;;6.69;47.88
49342;BME280;35210;41.606;-87.602;2023-03-21T05:56:30;99941.34;;;6.85;48.03
49342;BME280;35210;41.606;-87.602;2023-03-21T05:58:58;99955.41;;;6.84;47.96
49342;BME280;35210;41.606;-87.602;2023-03-21T06:01:26;99954.72;;;6.80;47.97
49342;BME280;35210;41.606;-87.602;2023-03-21T06:03:54;99954.03;;;6.77;48.50
49342;BME280;35210;41.606;-87.602;2023-03-21T06:06:24;99952.19;;;6.79;48.41
49342;BME280;35210;41.606;-87.602;2023-03-21T06:08:52;99958.50;;;6.59;48.41
49342;BME280;35210;41.606;-87.602;2023-03-21T06:11:25;99952.25;;;6.77;48.16
49342;BME280;35210;41.606;-87.602;2023-03-21T06:13:53;99962.69;;;6.79;48.05
49342;BME280;35210;41.606;-87.602;2023-03-21T06:16:21;99964.84;;;6.71;48.29
49342;BME280;35210;41.606;-87.602;2023-03-21T06:18:50;99963.44;;;6.81;48.02
49342;BME280;35210;41.606;-87.602;2023-03-21T06:21:18;99967.09;;;6.78;48.22
49342;BME280;35210;41.606;-87.602;2023-03-21T06:23:47;99967.75;;;6.82;48.24
49342;BME280;35210;41.606;-87.602;2023-03-21T06:26:18;99975.78;;;6.63;48.67
49342;BME280;35210;41.606;-87.602;2023-03-21T06:28:48;99984.00;;;6.73;48.62
49342;BME280;35210;41.606;-87.602;2023-03-21T06:31:16;99973.41;;;6.74;48.77
49342;BME280;35210;41.606;-87.602;2023-03-21T06:33:45;99979.94;;;6.67;48.47
49342;BME280;35210;41.606;-87.602;2023-03-21T06:36:14;99984.94;;;6.72;48.71
49342;BME280;35210;41.606;-87.602;2023-03-21T06:38:42;99985.00;;;6.70;49.08
49342;BME280;35210;41.606;-87.602;2023-03-21T06:41:12;99978.75;;;6.73;48.82
49342;BME280;35210;41.606;-87.602;2023-03-21T06:43:40;99988.06;;;6.63;48.84
49342;BME280;35210;41.606;-87.602;2023-03-21T06:46:11;99985.09;;;6.69;48.81
49342;BME280;35210;41.606;-87.602;2023-03-21T06:48:39;99992.31;;;6.65;49.09
49342;BME280;35210;41.606;-87.602;2023-03-21T06:51:10;99990.84;;;6.59;48.99
49342;BME280;35210;41.606;-87.602;2023-03-21T06:53:39;99996.69;;;6.65;48.94
49342;BME280;35210;41.606;-87.602;2023-03-21T06:56:13;99992.56;;;6.43;49.71
49342;BME280;35210;41.606;-87.602;2023-03-21T06:58:41;99994.25;;;6.44;50.20
49342;BME280;35210;41.606;-87.602;2023-03-21T07:01:09;100009.31;;;6.41;49.76
49342;BME280;35210;41.606;-87.602;2023-03-21T07:03:39;99996.03;;;6.44;50.14
49342;BME280;35210;41.606;-87.602;2023-03-21T07:06:09;99990.41;;;6.34;50.50
49342;BME280;35210;41.606;-87.602;2023-03-21T07:08:39;99997.03;;;6.24;51.28
49342;BME280;35210;41.606;-87.602;2023-03-21T07:11:08;99995.88;;;6.30;51.08
49342;BME280;35210;41.606;-87.602;2023-03-21T07:13:39;99997.66;;;6.29;50.96
49342;BME280;35210;41.606;-87.602;2023-03-21T07:16:09;99999.72;;;6.22;51.35
49342;BME280;35210;41.606;-87.602;2023-03-21T07:18:37;99999.81;;;6.21;51.57
49342;BME280;35210;41.606;-87.602;2023-03-21T07:21:06;100009.81;;;6.13;51.73
49342;BME280;35210;41.606;-87.602;2023-03-21T07:23:35;100001.66;;;6.19;51.42
49342;BME280;35210;41.606;-87.602;2023-03-21T07:26:04;100002.88;;;6.12;51.64
49342;BME280;35210;41.606;-87.602;2023-03-21T07:28:32;100004.88;;;6.07;51.74
49342;BME280;35210;41.606;-87.602;2023-03-21T07:31:04;100000.66;;;6.04;52.45
49342;BME280;35210;41.606;-87.602;2023-03-21T07:33:34;100007.50;;;6.07;52.22
49342;BME280;35210;41.606;-87.602;2023-03-21T07:36:03;100006.88;;;6.02;52.84
49342;BME280;35210;41.606;-87.602;2023-03-21T07:38:36;100010.06;;;5.91;53.52
49342;BME280;35210;41.606;-87.602;2023-03-21T07:41:06;100012.59;;;5.92;52.94
49342;BME280;35210;41.606;-87.602;2023-03-21T07:43:35;100010.91;;;5.91;53.25
49342;BME280;35210;41.606;-87.602;2023-03-21T07:46:05;100002.97;;;5.74;53.74
49342;BME280;35210;41.606;-87.602;2023-03-21T07:48:33;100008.47;;;5.87;53.64
49342;BME280;35210;41.606;-87.602;2023-03-21T07:51:02;100002.28;;;5.89;53.30
49342;BME280;35210;41.606;-87.602;2023-03-21T07:53:31;100007.50;;;5.89;53.60
49342;BME280;35210;41.606;-87.602;2023-03-21T07:55:59;100009.06;;;5.93;53.59
49342;BME280;35210;41.606;-87.602;2023-03-21T07:58:27;100013.94;;;5.82;53.32
49342;BME280;35210;41.606;-87.602;2023-03-21T08:00:57;100013.47;;;5.93;54.10
49342;BME280;35210;41.606;-87.602;2023-03-21T08:03:26;100006.78;;;5.86;53.65
49342;BME280;35210;41.606;-87.602;2023-03-21T08:05:58;100012.81;;;5.88;53.79
49342;BME280;35210;41.606;-87.602;2023-03-21T08:08:26;100009.56;;;5.83;53.90
49342;BME280;35210;41.606;-87.602;2023-03-21T08:10:56;100014.53;;;5.89;54.05
49342;BME280;35210;41.606;-87.602;2023-03-21T08:13:24;100009.28;;;5.89;53.64
49342;BME280;35210;41.606;-87.602;2023-03-21T08:15:52;100014.09;;;5.79;54.39
49342;BME280;35210;41.606;-87.602;2023-03-21T08:18:20;100010.63;;;5.79;53.59
49342;BME280;35210;41.606;-87.602;2023-03-21T08:20:52;100018.13;;;5.86;53.55
49342;BME280;35210;41.606;-87.602;2023-03-21T08:23:21;100010.00;;;5.74;54.26
49342;BME280;35210;41.606;-87.602;2023-03-21T08:25:50;100016.63;;;5.81;54.23
49342;BME280;35210;41.606;-87.602;2023-03-21T08:28:19;100011.31;;;5.82;54.21
49342;BME280;35210;41.606;-87.602;2023-03-21T08:30:48;100022.31;;;5.72;54.32
49342;BME280;35210;41.606;-87.602;2023-03-21T08:33:16;100008.91;;;5.78;54.18
49342;BME280;35210;41.606;-87.602;2023-03-21T08:35:45;100014.88;;;5.63;54.60
49342;BME280;35210;41.606;-87.602;2023-03-21T08:38:14;100022.81;;;5.61;55.16
49342;BME280;35210;41.606;-87.602;2023-03-21T08:40:43;100018.00;;;5.52;55.27
49342;BME280;35210;41.606;-87.602;2023-03-21T08:43:11;100028.34;;;5.55;55.69
49342;BME280;35210;41.606;-87.602;2023-03-21T08:45:40;100012.63;;;5.55;55.32
49342;BME280;35210;41.606;-87.602;2023-03-21T08:48:08;100015.97;;;5.58;55.45
49342;BME280;35210;41.606;-87.602;2023-03-21T08:50:36;100028.28;;;5.56;55.28
49342;BME280;35210;41.606;-87.602;2023-03-21T08:53:04;100012.78;;;5.52;55.29
49342;BME280;35210;41.606;-87.602;2023-03-21T08:55:35;100010.00;;;5.55;55.30
49342;BME280;35210;41.606;-87.602;2023-03-21T08:58:03;100012.63;;;5.55;55.72
49342;BME280;35210;41.606;-87.602;2023-03-21T09:00:32;100010.94;;;5.54;55.54
49342;BME280;35210;41.606;-87.602;2023-03-21T09:03:00;100014.34;;;5.56;55.29
49342;BME280;35210;41.606;-87.602;2023-03-21T09:05:30;100016.31;;;5.51;55.49
49342;BME280;35210;41.606;-87.602;2023-03-21T09:07:58;100015.75;;;5.44;55.74
49342;BME280;35210;41.606;-87.602;2023-03-21T09:10:28;100003.28;;;5.49;56.23
49342;BME280;35210;41.606;-87.602;2023-03-21T09:12:58;100002.72;;;5.43;56.20
49342;BME280;35210;41.606;-87.602;2023-03-21T09:15:27;100002.59;;;5.46;55.73
49342;BME280;35210;41.606;-87.602;2023-03-21T09:17:55;100021.56;;;5.51;56.08
49342;BME280;35210;41.606;-87.602;2023-03-21T09:20:25;100009.53;;;5.47;55.81
49342;BME280;35210;41.606;-87.602;2023-03-21T09:22:56;100009.66;;;5.44;55.90
49342;BME280;35210;41.606;-87.602;2023-03-21T09:25:24;100014.47;;;5.34;56.27
49342;BME280;35210;41.606;-87.602;2023-03-21T09:27:54;100008.09;;;5.40;56.67
49342;BME280;35210;41.606;-87.602;2023-03-21T09:30:24;100017.31;;;5.29;56.33
49342;BME280;35210;41.606;-87.602;2023-03-21T09:32:53;100018.09;;;5.32;56.63
49342;BME280;35210;41.606;-87.602;2023-03-21T09:35:22;100011.00;;;5.34;56.49
49342;BME280;35210;41.606;-87.602;2023-03-21T09:37:52;100015.47;;;5.32;56.72
49342;BME280;35210;41.606;-87.602;2023-03-21T09:40:36;100022.97;;;5.39;56.35
49342;BME280;35210;41.606;-87.602;2023-03-21T09:43:17;100024.03;;;5.35;56.73
49342;BME280;35210;41.606;-87.602;2023-03-21T09:45:57;100022.13;;;5.39;56.79
49342;BME280;35210;41.606;-87.602;2023-03-21T09:48:33;100020.84;;;5.28;56.66
49342;BME280;35210;41.606;-87.602;2023-03-21T09:51:07;100022.75;;;5.25;56.69
49342;BME280;35210;41.606;-87.602;2023-03-21T09:53:40;100023.81;;;5.21;57.07
49342;BME280;35210;41.606;-87.602;2023-03-21T09:56:10;100018.69;;;5.19;57.32
49342;BME280;35210;41.606;-87.602;2023-03-21T09:58:42;100024.84;;;5.18;56.70
49342;BME280;35210;41.606;-87.602;2023-03-21T10:01:16;100021.72;;;5.10;56.74
49342;BME280;35210;41.606;-87.602;2023-03-21T10:03:54;100027.94;;;5.08;57.13
49342;BME280;35210;41.606;-87.602;2023-03-21T10:06:26;100023.69;;;5.05;57.73
49342;BME280;35210;41.606;-87.602;2023-03-21T10:08:57;100031.59;;;5.04;57.26
49342;BME280;35210;41.606;-87.602;2023-03-21T10:11:30;100030.75;;;5.03;57.14
49342;BME280;35210;41.606;-87.602;2023-03-21T10:14:02;100040.84;;;4.92;57.19
49342;BME280;35210;41.606;-87.602;2023-03-21T10:16:35;100032.44;;;4.85;57.95
49342;BME280;35210;41.606;-87.602;2023-03-21T10:19:10;100043.34;;;4.95;57.53
49342;BME280;35210;41.606;-87.602;2023-03-21T10:21:40;100047.00;;;4.91;57.52
49342;BME280;35210;41.606;-87.602;2023-03-21T10:24:11;100040.06;;;4.90;57.98
49342;BME280;35210;41.606;-87.602;2023-03-21T10:26:42;100034.84;;;4.90;58.07
49342;BME280;35210;41.606;-87.602;2023-03-21T10:29:13;100030.59;;;4.87;57.90
49342;BME280;35210;41.606;-87.602;2023-03-21T10:31:44;100042.56;;;4.73;57.94
49342;BME280;35210;41.606;-87.602;2023-03-21T10:34:16;100039.22;;;4.89;57.38
49342;BME280;35210;41.606;-87.602;2023-03-21T10:36:45;100040.66;;;4.97;57.46
49342;BME280;35210;41.606;-87.602;2023-03-21T10:39:23;100040.59;;;4.78;58.31
49342;BME280;35210;41.606;-87.602;2023-03-21T10:41:53;100036.81;;;4.85;57.28
49342;BME280;35210;41.606;-87.602;2023-03-21T10:44:28;100040.06;;;4.90;57.70
49342;BME280;35210;41.606;-87.602;2023-03-21T10:47:03;100045.84;;;4.78;57.44
49342;BME280;35210;41.606;-87.602;2023-03-21T10:49:32;100041.38;;;4.80;57.99
49342;BME280;35210;41.606;-87.602;2023-03-21T10:52:04;100045.84;;;4.78;57.91
49342;BME280;35210;41.606;-87.602;2023-03-21T10:54:34;100047.69;;;4.76;57.35
49342;BME280;35210;41.606;-87.602;2023-03-21T10:57:04;100048.53;;;4.76;57.66
49342;BME280;35210;41.606;-87.602;2023-03-21T10:59:37;100057.28;;;4.75;57.61
49342;BME280;35210;41.606;-87.602;2023-03-21T11:02:16;100057.22;;;4.77;58.02
49342;BME280;35210;41.606;-87.602;2023-03-21T11:04:45;100054.59;;;4.77;57.39
49342;BME280;35210;41.606;-87.602;2023-03-21T11:07:14;100064.34;;;4.73;57.97
49342;BME280;35210;41.606;-87.602;2023-03-21T11:09:47;100066.19;;;4.71;57.82
49342;BME280;35210;41.606;-87.602;2023-03-21T11:12:18;100057.56;;;4.69;57.61
49342;BME280;35210;41.606;-87.602;2023-03-21T11:14:55;100067.28;;;4.66;57.83
49342;BME280;35210;41.606;-87.602;2023-03-21T11:17:28;100060.22;;;4.68;57.44
49342;BME280;35210;41.606;-87.602;2023-03-21T11:19:58;100056.84;;;4.66;57.57
49342;BME280;35210;41.606;-87.602;2023-03-21T11:22:36;100059.31;;;4.69;58.24
49342;BME280;35210;41.606;-87.602;2023-03-21T11:25:08;100059.84;;;4.77;57.62
49342;BME280;35210;41.606;-87.602;2023-03-21T11:27:47;100059.91;;;4.75;57.40
49342;BME280;35210;41.606;-87.602;2023-03-21T11:30:21;100067.50;;;4.81;57.07
49342;BME280;35210;41.606;-87.602;2023-03-21T11:32:54;100069.06;;;4.85;57.52
49342;BME280;35210;41.606;-87.602;2023-03-21T11:35:26;100066.38;;;4.87;56.90
49342;BME280;35210;41.606;-87.602;2023-03-21T11:37:55;100071.34;;;4.93;57.10
49342;BME280;35210;41.606;-87.602;2023-03-21T11:40:26;100071.81;;;4.82;57.42
49342;BME280;35210;41.606;-87.602;2023-03-21T11:42:55;100070.16;;;4.80;56.98
49342;BME280;35210;41.606;-87.602;2023-03-21T11:45:25;100072.72;;;4.81;57.27
49342;BME280;35210;41.606;-87.602;2023-03-21T11:47:56;100066.78;;;4.78;57.92
49342;BME280;35210;41.606;-87.602;2023-03-21T11:50:31;100068.59;;;4.76;57.30
49342;BME280;35210;41.606;-87.602;2023-03-21T11:53:19;100073.06;;;4.74;58.06
49342;BME280;35210;41.606;-87.602;2023-03-21T11:56:15;100076.97;;;4.63;58.10
49342;BME280;35210;41.606;-87.602;2023-03-21T11:59:21;100085.06;;;4.57;58.47
49342;BME280;35210;41.606;-87.602;2023-03-21T12:02:11;100081.81;;;4.52;58.47
49342;BME280;35210;41.606;-87.602;2023-03-21T12:04:51;100088.59;;;4.56;58.33
49342;BME280;35210;41.606;-87.602;2023-03-21T12:07:38;100097.97;;;4.62;58.53
49342;BME280;35210;41.606;-87.602;2023-03-21T12:10:26;100092.13;;;4.55;58.91
49342;BME280;35210;41.606;-87.602;2023-03-21T12:13:07;100101.81;;;4.53;58.44
49342;BME280;35210;41.606;-87.602;2023-03-21T12:15:42;100106.31;;;4.50;58.45
49342;BME280;35210;41.606;-87.602;2023-03-21T12:18:26;100108.09;;;4.49;58.53
49342;BME280;35210;41.606;-87.602;2023-03-21T12:21:03;100096.84;;;4.47;58.59
49342;BME280;35210;41.606;-87.602;2023-03-21T12:23:46;100101.44;;;4.42;59.62
49342;BME280;35210;41.606;-87.602;2023-03-21T12:26:22;100105.53;;;4.48;59.56
49342;BME280;35210;41.606;-87.602;2023-03-21T12:32:00;100102.47;;;4.58;59.43
49342;BME280;35210;41.606;-87.602;2023-03-21T12:34:56;100095.00;;;4.49;59.17
49342;BME280;35210;41.606;-87.602;2023-03-21T12:37:34;100097.25;;;4.58;58.53
49342;BME280;35210;41.606;-87.602;2023-03-21T12:40:11;100102.34;;;4.61;59.12
49342;BME280;35210;41.606;-87.602;2023-03-21T12:42:52;100105.88;;;4.60;58.46
49342;BME280;35210;41.606;-87.602;2023-03-21T12:45:29;100102.94;;;4.68;58.58
49342;BME280;35210;41.606;-87.602;2023-03-21T12:48:12;100101.56;;;4.59;58.78
49342;BME280;35210;41.606;-87.602;2023-03-21T12:50:43;100110.06;;;4.65;58.68
49342;BME280;35210;41.606;-87.602;2023-03-21T12:53:27;100105.50;;;4.70;58.73
49342;BME280;35210;41.606;-87.602;2023-03-21T12:56:03;100110.84;;;4.67;58.67
49342;BME280;35210;41.606;-87.602;2023-03-21T12:58:44;100116.81;;;4.70;58.47
49342;BME280;35210;41.606;-87.602;2023-03-21T13:01:14;100124.19;;;4.60;58.44
49342;BME280;35210;41.606;-87.602;2023-03-21T13:03:49;100127.28;;;4.70;58.37
49342;BME280;35210;41.606;-87.602;2023-03-21T13:06:21;100123.81;;;4.70;58.21
49342;BME280;35210;41.606;-87.602;2023-03-21T13:08:57;100127.13;;;4.73;58.74
49342;BME280;35210;41.606;-87.602;2023-03-21T13:11:29;100126.16;;;4.76;57.75
49342;BME280;35210;41.606;-87.602;2023-03-21T13:14:02;100132.06;;;4.81;58.02